Time;durP1;ratioP1;P1;durP2;ratioP2;P2;SDS_P1;SDS_P2;PMS_P1;PMS_P2;Temp;Humidity;BMP_temperature;BMP_pressure;BME280_temperature;BME280_humidity;BME280_pressure;Samples;Min_cycle;Max_cycle;Signal;HPM_P1;HPM_P2
2021/08/12 00:01:41;;;;;;;8.00;3.47;;;16.70;99.90;;;;;;5091820;28;20040;-69
2021/08/12 00:04:07;;;;;;;8.23;3.55;;;16.60;99.90;;;;;;5091516;28;20070;-68
2021/08/12 00:06:32;;;;;;;7.75;3.38;;;16.60;99.90;;;;;;5092228;28;20119;-68
2021/08/12 00:08:58;;;;;;;11.57;4.00;;;16.60;99.90;;;;;;5092092;28;20078;-68
2021/08/12 00:11:23;;;;;;;6.25;3.00;;;16.60;99.90;;;;;;5081899;28;20040;-68
2021/08/12 00:13:49;;;;;;;6.15;3.10;;;16.60;99.90;;;;;;5091434;28;20401;-68
2021/08/12 00:16:14;;;;;;;8.98;4.05;;;16.60;99.90;;;;;;5082063;28;20028;-68
2021/08/12 00:18:42;;;;;;;6.90;3.08;;;16.50;99.90;;;;;;5092169;28;20024;-68
2021/08/12 00:21:08;;;;;;;9.10;3.30;;;16.50;99.90;;;;;;5090425;28;20085;-69
2021/08/12 00:23:34;;;;;;;11.10;3.45;;;16.50;99.90;;;;;;5082008;28;20035;-68
2021/08/12 00:25:59;;;;;;;6.13;2.92;;;16.40;99.90;;;;;;5091332;28;20040;-68
2021/08/12 00:28:25;;;;;;;7.75;2.95;;;16.40;99.90;;;;;;5091403;28;20032;-68
2021/08/12 00:30:51;;;;;;;6.30;3.20;;;16.40;99.90;;;;;;5091690;28;20398;-69
2021/08/12 00:33:16;;;;;;;9.75;3.60;;;16.40;99.90;;;;;;5091441;28;20040;-69
2021/08/12 00:35:42;;;;;;;7.15;3.15;;;16.40;99.90;;;;;;5091429;28;20377;-69
2021/08/12 00:38:08;;;;;;;8.82;3.13;;;16.40;99.90;;;;;;5090662;28;20036;-68
2021/08/12 00:40:34;;;;;;;9.50;2.75;;;16.30;99.90;;;;;;5092033;28;20424;-69
2021/08/12 00:43:00;;;;;;;8.63;3.60;;;16.30;99.90;;;;;;5090719;28;20038;-68
2021/08/12 00:45:25;;;;;;;7.60;3.30;;;16.30;99.90;;;;;;5091340;28;20036;-68
2021/08/12 00:47:51;;;;;;;6.75;3.90;;;16.20;99.90;;;;;;5091364;28;20103;-68
2021/08/12 00:50:18;;;;;;;8.82;3.47;;;16.20;99.90;;;;;;5090777;28;20407;-68
2021/08/12 00:52:44;;;;;;;8.55;4.20;;;16.20;99.90;;;;;;5091454;28;20036;-68
2021/08/12 00:55:09;;;;;;;11.30;4.38;;;16.10;99.90;;;;;;5090872;28;20040;-69
2021/08/12 00:57:35;;;;;;;9.60;4.70;;;16.20;99.90;;;;;;5090467;28;20119;-68
2021/08/12 01:00:03;;;;;;;9.35;4.55;;;16.10;99.90;;;;;;5091180;28;20442;-68
2021/08/12 01:02:29;;;;;;;7.60;4.30;;;16.10;99.90;;;;;;5091476;28;20032;-69
2021/08/12 01:04:54;;;;;;;8.82;4.38;;;16.10;99.90;;;;;;5090951;28;20032;-68
2021/08/12 01:07:25;;;;;;;8.18;4.65;;;16.10;99.90;;;;;;5090089;28;20559;-68
2021/08/12 01:10:21;;;;;;;8.52;4.57;;;16.10;99.90;;;;;;5091121;28;20122;-68
2021/08/12 01:13:01;;;;;;;11.13;5.55;;;16.20;99.90;;;;;;5080252;28;20036;-68
2021/08/12 01:15:49;;;;;;;12.00;5.70;;;16.20;99.90;;;;;;5086789;28;20423;-69
2021/08/12 01:18:27;;;;;;;12.07;5.70;;;16.30;99.90;;;;;;5081603;28;20037;-67
2021/08/12 01:21:13;;;;;;;14.25;6.68;;;16.30;99.90;;;;;;5086612;28;20040;-69
2021/08/12 01:23:39;;;;;;;14.32;5.88;;;16.30;99.90;;;;;;5076740;28;20282;-68
2021/08/12 01:26:05;;;;;;;14.05;6.18;;;16.40;99.90;;;;;;5090411;28;20396;-68
2021/08/12 01:28:36;;;;;;;13.43;5.70;;;16.40;99.90;;;;;;5090180;28;20209;-68
2021/08/12 01:31:26;;;;;;;14.05;6.32;;;16.50;99.90;;;;;;5090737;28;20396;-68
2021/08/12 01:34:07;;;;;;;13.32;5.82;;;16.50;99.90;;;;;;5072968;28;20044;-68
2021/08/12 01:36:35;;;;;;;11.25;6.00;;;16.50;99.90;;;;;;5089275;28;20081;-68
2021/08/12 01:39:07;;;;;;;12.50;6.50;;;16.50;99.90;;;;;;5088121;28;20028;-69
2021/08/12 01:41:33;;;;;;;14.40;6.20;;;16.50;99.90;;;;;;5089892;28;20597;-68
2021/08/12 01:44:00;;;;;;;15.18;7.05;;;16.40;99.90;;;;;;5089804;28;20572;-68
2021/08/12 01:46:27;;;;;;;17.38;7.03;;;16.40;99.90;;;;;;5089929;28;20493;-69
2021/08/12 01:48:55;;;;;;;15.45;6.72;;;16.40;99.90;;;;;;5089857;28;20024;-68
2021/08/12 01:51:24;;;;;;;17.50;7.07;;;16.40;99.90;;;;;;5085742;28;20031;-68
2021/08/12 01:53:51;;;;;;;18.88;7.63;;;16.40;99.90;;;;;;5089254;28;20063;-68
2021/08/12 01:56:17;;;;;;;13.55;7.10;;;16.40;99.90;;;;;;5079624;28;20032;-68
2021/08/12 01:58:44;;;;;;;16.05;7.60;;;16.40;99.90;;;;;;5088216;28;20028;-68
2021/08/12 02:01:11;;;;;;;13.90;7.43;;;16.40;99.90;;;;;;5079948;28;20033;-69
2021/08/12 02:03:37;;;;;;;15.85;8.45;;;16.40;99.90;;;;;;5090226;28;20406;-68
2021/08/12 02:06:03;;;;;;;18.10;7.70;;;16.40;99.90;;;;;;5089071;28;20036;-69
2021/08/12 02:08:30;;;;;;;18.13;7.80;;;16.50;99.90;;;;;;5089865;28;20522;-68
2021/08/12 02:10:56;;;;;;;15.68;7.10;;;16.50;99.90;;;;;;5079362;28;20035;-68
2021/08/12 02:13:24;;;;;;;20.48;7.78;;;16.40;99.90;;;;;;5089681;28;20036;-68
2021/08/12 02:15:50;;;;;;;15.55;7.50;;;16.40;99.90;;;;;;5089039;28;20032;-68
2021/08/12 02:18:16;;;;;;;14.38;7.30;;;16.40;99.90;;;;;;5088846;28;20036;-68
2021/08/12 02:20:46;;;;;;;18.63;7.65;;;16.40;99.90;;;;;;5089105;28;20062;-71
2021/08/12 02:23:14;;;;;;;;;;;16.30;99.90;;;;;;5089925;28;20032;-67
2021/08/12 02:25:47;;;;;;;16.77;7.50;;;16.30;99.90;;;;;;5088930;28;19919;-69
2021/08/12 02:28:13;;;;;;;14.10;7.82;;;16.20;99.90;;;;;;5081484;28;20036;-69
2021/08/12 02:30:44;;;;;;;18.90;7.82;;;16.20;99.90;;;;;;5089722;28;20400;-69
2021/08/12 02:33:14;;;;;;;21.13;9.13;;;16.20;99.90;;;;;;5089050;28;20067;-68
2021/08/12 02:35:40;;;;;;;18.60;8.70;;;16.10;99.90;;;;;;5089061;28;20036;-68
2021/08/12 02:38:13;;;;;;;17.30;8.25;;;16.10;99.90;;;;;;5088970;28;20043;-68
2021/08/12 02:40:40;;;;;;;17.15;7.95;;;16.10;99.90;;;;;;5089364;28;20119;-68
2021/08/12 02:43:07;;;;;;;18.33;8.50;;;16.10;99.90;;;;;;5088341;28;20036;-68
2021/08/12 02:45:33;;;;;;;17.67;9.20;;;16.10;99.90;;;;;;5076074;28;20115;-69
2021/08/12 02:48:00;;;;;;;17.45;8.13;;;16.20;99.90;;;;;;5087534;28;20173;-68
2021/08/12 02:50:27;;;;;;;14.38;8.02;;;16.20;99.90;;;;;;5075090;28;20114;-68
2021/08/12 02:52:53;;;;;;;18.92;8.73;;;16.20;99.90;;;;;;5089343;28;20031;-68
2021/08/12 02:55:19;;;;;;;17.88;9.07;;;16.20;99.90;;;;;;5078697;28;20111;-68
2021/08/12 02:57:45;;;;;;;19.27;8.73;;;16.20;99.90;;;;;;5088725;28;20036;-68
2021/08/12 03:00:12;;;;;;;20.85;9.48;;;16.10;99.90;;;;;;5088298;28;20703;-68
2021/08/12 03:02:42;;;;;;;16.50;8.45;;;16.20;99.90;;;;;;5088681;28;20035;-69
2021/08/12 03:05:09;;;;;;;15.88;8.90;;;16.10;99.90;;;;;;5087474;28;20032;-69
2021/08/12 03:07:36;;;;;;;20.27;9.65;;;16.00;99.90;;;;;;5088378;28;20032;-68
2021/08/12 03:10:02;;;;;;;20.52;8.98;;;16.00;99.90;;;;;;5088232;28;20115;-69
2021/08/12 03:12:29;;;;;;;17.33;9.02;;;16.00;99.90;;;;;;5089061;28;20036;-69
2021/08/12 03:14:55;;;;;;;20.40;9.45;;;15.90;99.90;;;;;;5089285;28;20043;-68
2021/08/12 03:17:23;;;;;;;25.70;10.05;;;15.90;99.90;;;;;;5088347;28;20431;-68
2021/08/12 03:19:49;;;;;;;25.70;9.70;;;15.90;99.90;;;;;;5088760;28;20530;-68
2021/08/12 03:22:16;;;;;;;16.85;9.00;;;15.90;99.90;;;;;;5074313;28;20031;-68
2021/08/12 03:24:43;;;;;;;23.52;10.10;;;15.80;99.90;;;;;;5088182;28;20170;-68
2021/08/12 03:27:13;;;;;;;18.70;10.02;;;15.80;99.90;;;;;;5081476;28;21612;-68
2021/08/12 03:29:40;;;;;;;24.38;9.88;;;15.80;99.90;;;;;;5088579;28;20511;-69
2021/08/12 03:32:07;;;;;;;24.40;9.25;;;15.80;99.90;;;;;;5088200;28;20054;-68
2021/08/12 03:34:33;;;;;;;20.30;9.77;;;15.80;99.90;;;;;;5088665;28;20059;-69
2021/08/12 03:36:58;;;;;;;20.58;9.52;;;15.80;99.90;;;;;;5087953;28;20415;-69
2021/08/12 03:39:24;;;;;;;18.25;9.35;;;15.80;99.90;;;;;;5087981;28;20028;-68
2021/08/12 03:41:50;;;;;;;19.40;9.48;;;15.80;99.90;;;;;;5078943;28;20461;-68
2021/08/12 03:44:17;;;;;;;19.38;9.63;;;15.80;99.90;;;;;;5087447;28;20131;-69
2021/08/12 03:46:43;;;;;;;20.80;9.07;;;15.80;99.90;;;;;;5087553;28;20055;-68
2021/08/12 03:49:09;;;;;;;21.35;9.95;;;15.80;99.90;;;;;;5087247;28;20036;-68
2021/08/12 03:51:35;;;;;;;19.55;10.20;;;15.80;99.90;;;;;;5088252;28;20029;-68
2021/08/12 03:54:00;;;;;;;20.25;9.13;;;15.80;99.90;;;;;;5081162;28;20032;-68
2021/08/12 03:56:26;;;;;;;20.02;9.52;;;15.80;99.90;;;;;;5088697;28;20132;-68
2021/08/12 03:58:52;;;;;;;17.13;9.43;;;15.80;99.90;;;;;;5092067;28;20474;-69
2021/08/12 04:01:18;;;;;;;17.13;9.18;;;15.80;99.90;;;;;;5091484;28;20032;-68
2021/08/12 04:03:43;;;;;;;19.40;8.70;;;15.80;99.90;;;;;;5091798;28;20715;-69
2021/08/12 04:06:09;;;;;;;19.13;8.50;;;15.80;99.90;;;;;;5090766;28;20508;-69
2021/08/12 04:08:35;;;;;;;19.00;9.10;;;15.80;99.90;;;;;;5091762;28;20107;-68
2021/08/12 04:11:02;;;;;;;21.48;9.35;;;15.80;99.90;;;;;;5091996;28;20032;-68
2021/08/12 04:13:27;;;;;;;17.42;8.30;;;15.80;99.90;;;;;;5091244;28;20551;-68
2021/08/12 04:15:54;;;;;;;16.52;9.23;;;15.80;99.90;;;;;;5091714;28;20111;-69
2021/08/12 04:18:20;;;;;;;26.80;9.35;;;15.80;99.90;;;;;;5091634;28;20036;-68
2021/08/12 04:20:46;;;;;;;16.88;8.85;;;15.80;99.90;;;;;;5091824;28;20035;-68
2021/08/12 04:23:11;;;;;;;17.63;8.68;;;15.80;99.90;;;;;;5087145;28;20607;-70
2021/08/12 04:25:37;;;;;;;15.95;8.13;;;15.90;99.90;;;;;;5077974;28;20045;-68
2021/08/12 04:28:04;;;;;;;16.58;8.05;;;15.80;99.90;;;;;;5091622;28;20115;-68
2021/08/12 04:30:29;;;;;;;15.65;8.10;;;15.80;99.90;;;;;;5091105;28;20063;-68
2021/08/12 04:32:55;;;;;;;13.32;7.18;;;15.80;99.90;;;;;;5091574;28;20062;-67
2021/08/12 04:35:20;;;;;;;14.45;7.65;;;15.80;99.90;;;;;;5090821;28;20036;-68
2021/08/12 04:37:47;;;;;;;16.45;8.98;;;15.80;99.90;;;;;;5087549;28;20043;-68
2021/08/12 04:40:15;;;;;;;16.83;8.18;;;15.80;99.90;;;;;;5072885;28;20123;-67
2021/08/12 04:42:47;;;;;;;15.57;7.65;;;15.80;99.90;;;;;;5075530;28;20099;-68
2021/08/12 04:45:13;;;;;;;17.88;8.05;;;15.80;99.90;;;;;;5068727;28;20043;-68
2021/08/12 04:47:38;;;;;;;14.35;7.55;;;15.80;99.90;;;;;;5058562;28;20028;-69
2021/08/12 04:50:05;;;;;;;17.98;7.85;;;15.90;99.90;;;;;;5070682;28;20036;-69
2021/08/12 04:52:31;;;;;;;17.98;7.22;;;15.90;99.90;;;;;;5069144;28;20140;-68
2021/08/12 04:54:57;;;;;;;16.73;7.13;;;15.90;99.90;;;;;;5061307;28;20539;-68
2021/08/12 04:57:22;;;;;;;15.45;7.65;;;15.90;99.90;;;;;;5070603;28;20040;-68
2021/08/12 04:59:48;;;;;;;15.52;7.10;;;16.00;99.90;;;;;;5070516;28;20192;-69
2021/08/12 05:02:13;;;;;;;13.68;7.20;;;16.00;99.90;;;;;;5067876;28;20060;-69
2021/08/12 05:04:39;;;;;;;17.13;7.15;;;16.10;99.90;;;;;;5066430;28;20040;-68
2021/08/12 05:07:05;;;;;;;14.55;7.47;;;16.10;99.90;;;;;;5067530;28;20093;-68
2021/08/12 05:09:30;;;;;;;14.82;6.68;;;16.20;99.90;;;;;;5068705;28;20029;-68
2021/08/12 05:11:58;;;;;;;12.57;6.47;;;16.20;99.90;;;;;;5067688;28;20511;-69
2021/08/12 05:14:23;;;;;;;18.10;7.10;;;16.30;99.90;;;;;;5068917;28;20059;-68
2021/08/12 05:16:49;;;;;;;13.85;5.93;;;16.20;99.90;;;;;;5067380;28;20481;-68
2021/08/12 05:19:14;;;;;;;12.73;5.60;;;16.30;99.90;;;;;;5066449;28;20039;-69
2021/08/12 05:21:40;;;;;;;12.48;6.05;;;16.30;99.90;;;;;;5067568;28;20040;-68
2021/08/12 05:24:05;;;;;;;11.80;6.15;;;16.40;99.90;;;;;;5068235;28;20055;-68
2021/08/12 05:26:31;;;;;;;14.13;6.57;;;16.50;99.90;;;;;;5068086;28;20408;-68
2021/08/12 05:28:57;;;;;;;12.48;6.38;;;16.50;99.90;;;;;;5067391;28;20062;-68
2021/08/12 05:31:23;;;;;;;11.95;6.25;;;16.50;99.90;;;;;;5053553;28;20039;-68
2021/08/12 05:33:48;;;;;;;10.45;5.97;;;16.50;99.90;;;;;;5066872;28;20122;-67
2021/08/12 05:36:14;;;;;;;15.38;5.93;;;16.60;99.90;;;;;;5067549;28;20032;-68
2021/08/12 05:38:39;;;;;;;10.48;5.50;;;16.60;99.90;;;;;;5058040;28;20032;-70
2021/08/12 05:41:05;;;;;;;10.45;5.85;;;16.60;99.90;;;;;;5067550;28;20037;-68
2021/08/12 05:43:31;;;;;;;12.25;5.25;;;16.60;99.90;;;;;;5067937;28;20043;-68
2021/08/12 05:45:56;;;;;;;12.93;6.07;;;16.70;99.90;;;;;;5066644;28;20039;-68
2021/08/12 05:48:22;;;;;;;12.40;6.38;;;16.70;99.90;;;;;;5067576;28;20041;-68
2021/08/12 05:50:48;;;;;;;9.63;5.10;;;16.70;99.90;;;;;;5066694;28;20094;-68
2021/08/12 05:53:18;;;;;;;13.68;5.95;;;16.80;99.90;;;;;;5067255;28;20063;-68
2021/08/12 05:55:44;;;;;;;15.23;5.40;;;16.80;99.90;;;;;;5054572;28;20056;-67
2021/08/12 05:58:10;;;;;;;10.13;5.82;;;16.80;99.90;;;;;;5051785;28;20148;-70
2021/08/12 06:00:36;;;;;;;13.27;5.38;;;16.80;99.90;;;;;;5051351;28;20044;-67
2021/08/12 06:03:06;;;;;;;15.77;6.30;;;16.80;99.90;;;;;;5066329;28;20032;-68
2021/08/12 06:05:32;;;;;;;11.32;6.18;;;16.70;99.90;;;;;;5067597;28;20085;-68
2021/08/12 06:08:00;;;;;;;9.43;5.40;;;16.70;99.90;;;;;;5066058;28;20134;-67
2021/08/12 06:10:26;;;;;;;12.60;5.72;;;16.80;99.90;;;;;;5054369;28;20029;-68
2021/08/12 06:12:53;;;;;;;11.07;5.03;;;16.80;99.90;;;;;;5051814;28;20037;-68
2021/08/12 06:15:19;;;;;;;14.88;6.35;;;16.90;99.90;;;;;;5066605;28;20040;-67
2021/08/12 06:17:45;;;;;;;12.05;5.90;;;17.20;99.90;;;;;;5066286;28;20052;-67
2021/08/12 06:20:11;;;;;;;12.60;5.72;;;17.40;99.90;;;;;;5065744;28;20040;-68
2021/08/12 06:22:37;;;;;;;10.63;5.35;;;17.60;99.90;;;;;;5067169;28;20028;-68
2021/08/12 06:25:03;;;;;;;13.95;6.18;;;17.80;99.90;;;;;;5055010;28;20036;-68
2021/08/12 06:27:29;;;;;;;18.27;6.03;;;17.90;99.90;;;;;;5065660;28;20033;-67
2021/08/12 06:29:54;;;;;;;13.48;6.03;;;18.20;99.90;;;;;;5066373;28;20503;-68
2021/08/12 06:32:20;;;;;;;11.07;5.80;;;18.30;99.90;;;;;;5065671;28;20028;-68
2021/08/12 06:34:46;;;;;;;15.32;5.80;;;18.50;99.90;;;;;;5066030;28;20087;-67
2021/08/12 06:37:11;;;;;;;14.13;6.20;;;18.70;99.90;;;;;;5049429;28;20830;-68
2021/08/12 06:39:37;;;;;;;13.07;6.47;;;19.10;99.90;;;;;;5065687;28;20040;-69
2021/08/12 06:42:04;;;;;;;10.80;6.05;;;19.30;99.90;;;;;;5064521;28;20441;-68
2021/08/12 06:44:29;;;;;;;12.45;5.65;;;19.60;99.90;;;;;;5064985;28;20043;-68
2021/08/12 06:46:55;;;;;;;15.75;5.50;;;19.90;99.90;;;;;;5064130;28;20036;-68
2021/08/12 06:49:20;;;;;;;13.30;6.15;;;19.90;99.90;;;;;;5052783;28;20182;-69
2021/08/12 06:51:46;;;;;;;13.63;6.53;;;20.10;99.90;;;;;;5050122;28;20055;-68
2021/08/12 06:54:11;;;;;;;11.07;6.18;;;20.00;99.90;;;;;;5064067;28;20040;-67
2021/08/12 06:56:38;;;;;;;17.00;6.35;;;19.90;99.90;;;;;;5064196;28;20187;-68
2021/08/12 06:59:03;;;;;;;13.68;6.05;;;20.30;99.90;;;;;;5051228;28;20039;-68
2021/08/12 07:01:29;;;;;;;11.40;6.05;;;20.70;99.90;;;;;;5064435;28;20033;-69
2021/08/12 07:03:56;;;;;;;11.32;6.03;;;20.80;99.90;;;;;;5064705;28;20055;-68
2021/08/12 07:06:21;;;;;;;10.05;5.57;;;21.30;99.90;;;;;;5062346;28;20040;-68
2021/08/12 07:08:47;;;;;;;10.85;5.38;;;22.00;99.90;;;;;;5055158;28;20519;-69
2021/08/12 07:11:13;;;;;;;14.55;5.55;;;23.00;99.90;;;;;;5064179;28;20058;-68
2021/08/12 07:13:38;;;;;;;11.13;5.65;;;24.00;99.90;;;;;;5065392;28;20037;-69
2021/08/12 07:16:06;;;;;;;9.82;5.57;;;25.00;99.90;;;;;;5047442;28;20032;-69
2021/08/12 07:18:33;;;;;;;9.25;5.88;;;26.00;99.90;;;;;;5051109;28;20060;-68
2021/08/12 07:20:59;;;;;;;11.55;6.63;;;26.70;99.90;;;;;;5064647;28;20192;-68
2021/08/12 07:23:27;;;;;;;9.77;6.55;;;27.20;99.90;;;;;;5064394;28;20654;-69
2021/08/12 07:25:53;;;;;;;10.25;6.20;;;27.20;99.90;;;;;;5061798;28;20142;-69
2021/08/12 07:28:18;;;;;;;12.75;7.38;;;27.80;99.80;;;;;;5063809;28;20127;-69
2021/08/12 07:30:44;;;;;;;9.85;6.20;;;28.00;98.40;;;;;;5065074;28;20500;-70
2021/08/12 07:33:09;;;;;;;10.68;7.03;;;28.40;97.40;;;;;;5067875;28;20399;-68
2021/08/12 07:35:35;;;;;;;8.75;6.55;;;28.50;96.20;;;;;;5068609;28;20527;-69
2021/08/12 07:38:00;;;;;;;10.65;7.40;;;28.90;95.50;;;;;;5066425;28;20040;-69
2021/08/12 07:40:27;;;;;;;11.02;6.63;;;29.40;94.30;;;;;;5068147;28;20414;-70
2021/08/12 07:42:52;;;;;;;14.27;8.55;;;29.20;93.60;;;;;;5065047;28;20067;-70
2021/08/12 07:45:18;;;;;;;10.30;7.05;;;29.30;93.10;;;;;;5067574;28;20071;-69
2021/08/12 07:47:43;;;;;;;12.25;7.03;;;29.10;92.90;;;;;;5068294;28;20116;-69
2021/08/12 07:50:11;;;;;;;11.98;6.53;;;29.10;91.80;;;;;;5066203;28;20090;-69
2021/08/12 07:52:41;;;;;;;8.85;6.47;;;29.00;91.40;;;;;;5068834;28;20125;-69
2021/08/12 07:55:08;;;;;;;10.30;6.15;;;28.80;89.80;;;;;;5064815;28;20040;-70
2021/08/12 07:57:33;;;;;;;11.15;6.40;;;28.80;90.60;;;;;;5067646;28;20741;-69
2021/08/12 07:59:59;;;;;;;8.18;5.07;;;28.60;90.50;;;;;;5068601;28;20040;-68
2021/08/12 08:02:25;;;;;;;6.30;4.20;;;28.00;90.00;;;;;;5067788;28;20101;-69
2021/08/12 08:04:50;;;;;;;7.97;4.00;;;27.80;91.10;;;;;;5068589;28;20182;-69
2021/08/12 08:07:16;;;;;;;7.25;3.60;;;27.30;91.40;;;;;;5067203;28;20083;-69
2021/08/12 08:09:41;;;;;;;7.82;4.47;;;26.90;92.20;;;;;;5068153;28;20033;-69
2021/08/12 08:12:07;;;;;;;5.68;3.17;;;26.50;93.40;;;;;;5068078;28;20025;-68
2021/08/12 08:14:33;;;;;;;4.95;2.90;;;26.10;93.60;;;;;;5067712;28;20036;-69
2021/08/12 08:16:59;;;;;;;7.05;2.40;;;25.80;93.20;;;;;;5067791;28;20051;-69
2021/08/12 08:19:24;;;;;;;5.35;1.90;;;25.60;94.50;;;;;;5067115;28;20036;-68
2021/08/12 08:21:50;;;;;;;3.80;1.58;;;25.40;93.00;;;;;;5067943;28;20043;-68
2021/08/12 08:24:15;;;;;;;2.33;1.40;;;25.00;93.30;;;;;;5066949;28;20032;-69
2021/08/12 08:26:41;;;;;;;3.60;1.60;;;24.90;94.30;;;;;;5067463;28;20032;-68
2021/08/12 08:29:06;;;;;;;3.95;1.83;;;24.80;93.40;;;;;;5067500;28;20530;-67
2021/08/12 08:31:32;;;;;;;2.75;1.73;;;24.60;94.00;;;;;;5066836;28;20043;-69
2021/08/12 08:33:59;;;;;;;5.65;2.13;;;24.60;95.40;;;;;;5067740;28;20106;-68
2021/08/12 08:36:25;;;;;;;6.78;2.50;;;24.40;95.10;;;;;;5066375;28;20033;-69
2021/08/12 08:38:51;;;;;;;8.00;2.25;;;24.40;95.70;;;;;;5067754;28;20123;-69
2021/08/12 08:41:18;;;;;;;4.20;1.75;;;24.30;96.70;;;;;;5064969;28;20043;-68
2021/08/12 08:43:45;;;;;;;3.60;1.70;;;24.30;97.90;;;;;;5066524;28;20044;-69
2021/08/12 08:46:12;;;;;;;4.30;1.83;;;24.30;97.00;;;;;;5067250;28;20044;-68
2021/08/12 08:48:40;;;;;;;5.13;2.13;;;24.40;96.90;;;;;;5066670;28;20139;-68
2021/08/12 08:51:08;;;;;;;3.80;1.55;;;24.30;96.70;;;;;;5067407;28;20063;-69
2021/08/12 08:53:38;;;;;;;5.30;1.38;;;24.20;96.60;;;;;;5062322;28;20434;-69
2021/08/12 08:56:04;;;;;;;2.58;1.23;;;24.20;96.40;;;;;;5066709;28;20033;-69
2021/08/12 08:58:30;;;;;;;5.07;1.48;;;24.10;97.00;;;;;;5085261;28;20036;-69
2021/08/12 09:00:56;;;;;;;3.40;1.52;;;24.20;96.70;;;;;;5087469;28;20400;-69
2021/08/12 09:03:22;;;;;;;4.07;1.38;;;24.20;97.50;;;;;;5086193;28;20492;-69
2021/08/12 09:05:48;;;;;;;3.00;1.42;;;24.20;98.00;;;;;;5086788;28;21588;-69
2021/08/12 09:08:13;;;;;;;4.85;1.50;;;24.30;97.70;;;;;;5086832;28;20028;-69
2021/08/12 09:10:39;;;;;;;7.38;2.15;;;24.40;98.20;;;;;;5086740;28;20044;-69
2021/08/12 09:13:08;;;;;;;5.47;1.92;;;24.50;97.90;;;;;;5086672;28;20024;-69
2021/08/12 09:15:42;;;;;;;7.55;1.50;;;24.50;97.70;;;;;;5086026;28;20028;-69
2021/08/12 09:18:25;;;;;;;4.40;1.85;;;24.40;98.10;;;;;;5086731;28;20032;-69
2021/08/12 09:20:53;;;;;;;6.43;1.80;;;24.40;97.70;;;;;;5072264;28;20452;-68
2021/08/12 09:23:29;;;;;;;5.30;1.63;;;24.40;98.00;;;;;;5087138;28;20036;-69
2021/08/12 09:25:57;;;;;;;5.47;1.85;;;24.50;98.50;;;;;;5083986;28;20434;-69
2021/08/12 09:28:26;;;;;;;3.33;1.45;;;24.60;98.10;;;;;;5086606;28;20040;-69
2021/08/12 09:30:57;;;;;;;3.35;1.33;;;24.80;97.30;;;;;;5086449;28;20046;-69
2021/08/12 09:33:22;;;;;;;4.85;1.48;;;24.70;96.70;;;;;;5086612;28;20099;-69
2021/08/12 09:35:48;;;;;;;3.90;1.85;;;24.80;96.30;;;;;;5085448;28;20040;-68
2021/08/12 09:38:15;;;;;;;5.72;2.20;;;24.80;96.60;;;;;;5086257;28;20102;-69
2021/08/12 09:40:43;;;;;;;4.40;2.10;;;24.70;96.90;;;;;;5084747;28;20039;-68
2021/08/12 09:43:10;;;;;;;4.18;1.50;;;24.60;97.60;;;;;;5085892;28;20587;-69
2021/08/12 09:45:39;;;;;;;4.20;1.25;;;24.60;97.00;;;;;;5085738;28;20165;-68
2021/08/12 09:48:16;;;;;;;3.55;1.42;;;24.70;96.90;;;;;;5085486;28;20102;-68
2021/08/12 09:50:43;;;;;;;1.98;1.20;;;24.80;97.70;;;;;;5082848;28;20043;-68
2021/08/12 09:53:18;;;;;;;3.08;1.40;;;25.10;97.90;;;;;;5085802;28;20032;-69
2021/08/12 09:55:44;;;;;;;2.67;1.80;;;25.20;97.80;;;;;;5084558;28;20187;-68
2021/08/12 09:58:11;;;;;;;5.15;1.55;;;25.20;96.60;;;;;;5085636;28;20036;-68
2021/08/12 10:00:39;;;;;;;4.65;1.60;;;25.30;96.10;;;;;;5085607;28;20081;-69
2021/08/12 10:03:28;;;;;;;4.10;1.70;;;25.20;96.20;;;;;;5085854;28;20040;-68
2021/08/12 10:05:58;;;;;;;4.50;1.17;;;25.10;96.10;;;;;;5084765;28;20527;-68
2021/08/12 10:08:28;;;;;;;8.95;2.20;;;25.10;97.10;;;;;;5076461;28;20442;-69
2021/08/12 10:10:55;;;;;;;3.45;1.50;;;25.20;96.10;;;;;;5066861;28;20763;-68
2021/08/12 10:13:20;;;;;;;4.15;1.75;;;25.20;96.60;;;;;;5065337;28;20047;-68
2021/08/12 10:15:49;;;;;;;4.18;1.83;;;25.40;96.50;;;;;;5064921;28;20591;-69
2021/08/12 10:18:19;;;;;;;4.25;1.35;;;25.50;97.00;;;;;;5085098;28;20126;-69
2021/08/12 10:20:46;;;;;;;2.58;1.58;;;25.50;96.00;;;;;;5085115;28;20145;-68
2021/08/12 10:23:12;;;;;;;2.70;1.35;;;25.50;95.80;;;;;;5077568;28;20040;-69
2021/08/12 10:25:38;;;;;;;4.35;1.60;;;25.50;95.30;;;;;;5079556;28;20039;-68
2021/08/12 10:28:06;;;;;;;2.45;1.13;;;25.60;96.00;;;;;;5090374;28;20682;-69
2021/08/12 10:30:33;;;;;;;3.28;1.48;;;25.60;96.30;;;;;;5068825;28;20047;-68
2021/08/12 10:33:01;;;;;;;2.30;1.17;;;25.60;96.10;;;;;;5083903;28;20028;-69
2021/08/12 10:35:30;;;;;;;3.17;1.55;;;25.60;94.70;;;;;;5080033;28;20024;-68
2021/08/12 10:37:57;;;;;;;2.30;1.40;;;25.60;94.90;;;;;;5083697;28;20032;-69
2021/08/12 10:40:28;;;;;;;2.45;1.10;;;25.60;94.90;;;;;;5085662;28;20075;-68
2021/08/12 10:42:55;;;;;;;3.15;1.40;;;25.60;94.20;;;;;;5077573;28;20505;-68
2021/08/12 10:45:24;;;;;;;2.08;1.15;;;25.50;94.60;;;;;;5078323;28;20773;-68
2021/08/12 10:47:56;;;;;;;3.13;1.30;;;25.60;94.30;;;;;;5083409;28;20577;-68
2021/08/12 10:50:22;;;;;;;2.58;1.20;;;25.50;93.80;;;;;;5080700;28;20043;-68
2021/08/12 10:53:06;;;;;;;2.00;1.00;;;25.50;93.90;;;;;;5071346;28;20040;-68
2021/08/12 10:55:34;;;;;;;2.72;1.08;;;25.60;94.80;;;;;;5066025;28;20047;-69
2021/08/12 10:58:17;;;;;;;3.58;1.05;;;25.60;94.20;;;;;;5067193;28;20504;-69
2021/08/12 11:00:57;;;;;;;3.25;1.20;;;25.70;93.70;;;;;;5066622;28;20036;-68
2021/08/12 11:03:53;;;;;;;3.70;1.05;;;25.80;94.90;;;;;;5063069;28;20032;-68
2021/08/12 11:06:21;;;;;;;2.72;0.82;;;25.90;93.30;;;;;;5063135;28;20488;-69
2021/08/12 11:08:49;;;;;;;2.55;1.17;;;25.80;94.20;;;;;;5071196;28;20044;-70
2021/08/12 11:11:28;;;;;;;3.25;1.00;;;25.90;93.40;;;;;;5071425;28;20056;-68
2021/08/12 11:14:13;;;;;;;2.00;1.30;;;25.80;93.90;;;;;;5067575;28;20207;-68
2021/08/12 11:16:42;;;;;;;2.92;1.20;;;25.80;94.20;;;;;;5069814;28;20035;-69
2021/08/12 11:19:27;;;;;;;5.32;1.30;;;25.80;93.50;;;;;;5069589;28;20041;-68
2021/08/12 11:21:53;;;;;;;6.32;1.27;;;25.80;92.80;;;;;;5067210;28;20047;-68
2021/08/12 11:24:25;;;;;;;4.53;1.40;;;25.80;93.50;;;;;;5070932;28;20055;-69
2021/08/12 11:26:51;;;;;;;1.95;1.10;;;25.70;94.10;;;;;;5066861;28;20032;-68
2021/08/12 11:29:22;;;;;;;3.80;1.15;;;25.50;92.80;;;;;;5071086;28;20116;-68
2021/08/12 11:31:47;;;;;;;2.70;1.05;;;25.40;93.70;;;;;;5070553;28;20059;-69
2021/08/12 11:34:36;;;;;;;3.75;1.50;;;25.30;93.90;;;;;;5060836;28;20032;-69
2021/08/12 11:37:09;;;;;;;1.85;0.98;;;25.20;93.20;;;;;;5068230;28;20043;-70
2021/08/12 11:40:05;;;;;;;2.97;0.82;;;25.30;93.80;;;;;;5070764;28;20608;-68
2021/08/12 11:42:38;;;;;;;3.22;0.93;;;25.50;93.90;;;;;;5068545;28;20052;-69
2021/08/12 11:45:14;;;;;;;2.15;0.90;;;25.70;93.40;;;;;;5063475;28;20033;-67
2021/08/12 11:47:42;;;;;;;3.17;1.20;;;26.00;93.20;;;;;;5070432;28;20090;-69
2021/08/12 11:50:10;;;;;;;2.53;1.30;;;26.10;92.70;;;;;;5070769;28;20077;-69
2021/08/12 11:52:38;;;;;;;2.40;0.90;;;26.40;93.80;;;;;;5070241;28;20044;-69
2021/08/12 11:55:10;;;;;;;2.33;1.00;;;26.60;92.10;;;;;;5060883;28;20036;-68
2021/08/12 11:57:46;;;;;;;3.17;0.77;;;26.80;93.50;;;;;;5070028;28;20432;-68
2021/08/12 12:00:28;;;;;;;1.85;0.90;;;27.00;92.90;;;;;;5056486;28;20013;-68
2021/08/12 12:03:02;;;;;;;2.20;0.95;;;26.90;92.80;;;;;;5067523;28;20115;-69
2021/08/12 12:05:29;;;;;;;3.13;1.13;;;26.80;92.40;;;;;;5070267;28;20040;-69
2021/08/12 12:07:56;;;;;;;3.47;0.85;;;26.90;92.70;;;;;;5070073;28;20044;-68
2021/08/12 12:10:31;;;;;;;3.95;1.30;;;26.90;92.80;;;;;;5070716;28;20040;-68
2021/08/12 12:13:13;;;;;;;2.35;1.05;;;26.70;92.30;;;;;;5070051;28;20115;-68
2021/08/12 12:15:44;;;;;;;2.65;1.00;;;26.60;93.20;;;;;;5069768;28;20709;-69
2021/08/12 12:18:12;;;;;;;2.97;0.98;;;26.60;93.30;;;;;;5069427;28;20071;-69
2021/08/12 12:20:40;;;;;;;2.60;1.02;;;26.40;92.50;;;;;;5059792;28;20021;-68
2021/08/12 12:23:09;;;;;;;1.10;0.70;;;26.30;93.90;;;;;;5070297;28;20037;-68
2021/08/12 12:25:37;;;;;;;2.28;1.08;;;26.30;94.10;;;;;;5059627;28;20033;-69
2021/08/12 12:28:04;;;;;;;2.90;1.02;;;26.40;94.50;;;;;;5069626;28;20044;-68
2021/08/12 12:30:32;;;;;;;2.33;1.15;;;26.60;94.40;;;;;;5070029;28;20460;-68
2021/08/12 12:33:00;;;;;;;2.42;1.13;;;26.60;92.20;;;;;;5069818;28;20082;-68
2021/08/12 12:35:27;;;;;;;4.70;1.10;;;26.40;92.90;;;;;;5069900;28;20055;-67
2021/08/12 12:37:53;;;;;;;2.13;1.25;;;26.30;93.70;;;;;;5069054;28;20051;-69
2021/08/12 12:40:21;;;;;;;3.38;1.13;;;26.40;94.60;;;;;;5069574;28;20528;-69
2021/08/12 12:42:51;;;;;;;3.05;1.35;;;26.50;93.70;;;;;;5069180;28;20040;-69
2021/08/12 12:45:17;;;;;;;5.28;1.67;;;26.50;92.20;;;;;;5066126;28;20405;-69